In Rescue
 
Open Full Screen Window  High Contrast Mode
Wind Gusting 00 knots
04
September 19, 2019 4:50 PM EDT
Weather Information
Wind Direction
  050 °
Wind Speed
  04 kt (5 mph)
Wind Gust
  00 kt (0 mph)
Altimeter
30.07 in
Visibility
10 SM
Temperature
22° C
72° F
Dewpoint
16° C
61° F
Humidity
69%
Sky Condition
Clear
VFR

METAR KSLH 192050Z AUTO 05004KT 10SM CLR 22/16 A3007 RMK AO2 T02220160

FAA Disclaimer: The data displayed is for advisory purposes only and is not to be used for flight planning or operations.